Time,TemperatureF,DewpointF,PressureIn,WindDirection,WindDirectionDegrees,WindSpeedMPH,WindSpeedGustMPH,Humidity,HourlyPrecipIn,Conditions,Clouds,dailyrainin,SoftwareType,DateUTC
2013-01-11 00:00:00,60.5,55.7,29.81,South,189,8.0,12.0,84,0.03,,-RA,0.13,VWS V14.01,2013-01-11 06:00:00,
2013-01-11 00:05:00,60.5,55.7,29.80,South,175,7.0,11.0,84,0.03,,-RA,0.00,VWS V14.01,2013-01-11 06:05:00,
2013-01-11 00:10:00,60.5,55.7,29.80,South,177,7.0,13.0,84,0.03,,-RA,0.00,VWS V14.01,2013-01-11 06:10:00,
2013-01-11 00:15:00,60.6,55.8,29.80,South,181,5.0,14.0,84,0.02,,-RA,0.00,VWS V14.01,2013-01-11 06:15:00,
2013-01-11 00:20:00,60.6,55.8,29.80,SSW,205,11.0,14.0,84,0.02,,-RA,0.00,VWS V14.01,2013-01-11 06:20:00,
2013-01-11 00:25:00,60.5,55.7,29.79,SE,133,5.0,7.0,84,0.02,,-RA,0.00,VWS V14.01,2013-01-11 06:25:00,
2013-01-11 00:30:00,60.5,55.7,29.79,South,191,5.0,8.0,84,0.02,,-RA,0.00,VWS V14.01,2013-01-11 06:30:00,
2013-01-11 00:35:00,60.2,55.0,29.79,South,180,1.0,4.0,83,0.02,,-RA,0.00,VWS V14.01,2013-01-11 06:35:00,
2013-01-11 00:40:00,60.0,55.2,29.79,SSW,193,1.0,5.0,84,0.02,,-RA,0.00,VWS V14.01,2013-01-11 06:40:00,
2013-01-11 00:45:00,59.9,55.1,29.81,South,180,6.0,10.0,84,0.02,,OVC090,0.00,VWS V14.01,2013-01-11 06:45:00,
2013-01-11 00:50:00,60.1,55.3,29.81,South,181,0.0,10.0,84,0.02,,OVC090,0.00,VWS V14.01,2013-01-11 06:50:00,
2013-01-11 00:55:00,60.3,55.5,29.80,SW,215,3.0,9.0,84,0.01,,-RA,0.01,VWS V14.01,2013-01-11 06:55:00,
2013-01-11 01:00:00,60.4,55.5,29.79,SSW,193,3.0,9.0,84,0.01,,-RA,0.01,VWS V14.01,2013-01-11 07:00:00,
2013-01-11 01:05:00,60.3,55.1,29.79,SSW,213,4.0,8.0,83,0.02,,-RA,0.02,VWS V14.01,2013-01-11 07:05:00,
2013-01-11 01:10:00,60.2,55.0,29.79,South,190,6.0,9.0,83,0.02,,-RA,0.02,VWS V14.01,2013-01-11 07:10:00,
2013-01-11 01:15:00,60.2,55.0,29.80,SW,234,2.0,9.0,83,0.02,,-RA,0.02,VWS V14.01,2013-01-11 07:15:00,
2013-01-11 01:20:00,60.2,55.0,29.80,SSW,210,4.0,9.0,83,0.02,,-RA,0.02,VWS V14.01,2013-01-11 07:20:00,
2013-01-11 01:25:00,60.1,54.9,29.80,SSW,196,3.0,6.0,83,0.02,,-RA,0.02,VWS V14.01,2013-01-11 07:25:00,
2013-01-11 01:30:00,60.1,54.9,29.80,SSW,202,3.0,12.0,83,0.02,,-RA,0.02,VWS V14.01,2013-01-11 07:30:00,
2013-01-11 01:35:00,60.1,54.9,29.80,South,182,4.0,11.0,83,0.02,,-RA,0.02,VWS V14.01,2013-01-11 07:35:00,
2013-01-11 01:40:00,60.1,54.9,29.81,SSW,194,2.0,11.0,83,0.02,,-RA,0.02,VWS V14.01,2013-01-11 07:40:00,
2013-01-11 01:45:00,60.0,54.8,29.81,South,187,7.0,10.0,83,0.02,,-RA,0.02,VWS V14.01,2013-01-11 07:45:00,
2013-01-11 01:50:00,60.1,54.9,29.81,South,186,5.0,14.0,83,0.02,,-RA,0.02,VWS V14.01,2013-01-11 07:50:00,
2013-01-11 01:55:00,60.0,54.8,29.81,South,186,3.0,7.0,83,0.02,,OVC110,0.02,VWS V14.01,2013-01-11 07:55:00,
2013-01-11 02:00:00,59.9,54.7,29.81,SSW,192,3.0,9.0,83,0.02,,OVC110,0.02,VWS V14.01,2013-01-11 08:00:00,
2013-01-11 02:05:00,59.9,54.7,29.81,SSW,194,5.0,13.0,83,0.01,,OVC110,0.02,VWS V14.01,2013-01-11 08:05:00,
2013-01-11 02:10:00,59.8,54.6,29.81,SSW,192,6.0,13.0,83,0.01,,OVC110,0.02,VWS V14.01,2013-01-11 08:10:00,
2013-01-11 02:15:00,59.6,54.4,29.81,SSW,211,1.0,7.0,83,0.00,,OVC110,0.02,VWS V14.01,2013-01-11 08:15:00,
2013-01-11 02:20:00,59.5,54.3,29.82,SSW,196,6.0,7.0,83,0.00,,OVC110,0.02,VWS V14.01,2013-01-11 08:20:00,
2013-01-11 02:25:00,59.4,54.2,29.82,South,182,1.0,7.0,83,0.00,,OVC110,0.02,VWS V14.01,2013-01-11 08:25:00,
2013-01-11 02:30:00,59.3,54.2,29.82,South,174,8.0,8.0,83,0.00,,OVC110,0.02,VWS V14.01,2013-01-11 08:30:00,
2013-01-11 02:35:00,59.2,54.0,29.81,SSW,192,3.0,5.0,83,0.00,,OVC110,0.02,VWS V14.01,2013-01-11 08:35:00,
2013-01-11 02:40:00,59.1,54.0,29.82,SSW,202,1.0,9.0,83,0.00,,OVC110,0.02,VWS V14.01,2013-01-11 08:40:00,
2013-01-11 02:45:00,59.0,53.8,29.82,SSW,213,3.0,10.0,83,0.00,,OVC110,0.02,VWS V14.01,2013-01-11 08:45:00,
2013-01-11 02:50:00,58.9,53.8,29.82,SSW,213,3.0,10.0,83,0.00,,OVC090,0.02,VWS V14.01,2013-01-11 08:50:00,
2013-01-11 02:56:00,58.8,53.7,29.82,SSW,207,3.0,6.0,83,0.00,,OVC090,0.02,VWS V14.01,2013-01-11 08:56:00,
2013-01-11 03:01:00,58.6,53.5,29.82,South,186,6.0,8.0,83,0.00,,OVC090,0.02,VWS V14.01,2013-01-11 09:01:00,
2013-01-11 03:06:00,58.5,53.4,29.82,South,191,4.0,8.0,83,0.00,,OVC090,0.02,VWS V14.01,2013-01-11 09:06:00,
2013-01-11 03:11:00,58.4,53.3,29.82,South,182,5.0,8.0,83,0.00,,OVC090,0.02,VWS V14.01,2013-01-11 09:11:00,
2013-01-11 03:16:00,58.2,53.1,29.82,SSW,196,6.0,7.0,83,0.00,,OVC090,0.02,VWS V14.01,2013-01-11 09:16:00,
2013-01-11 03:21:00,58.1,53.0,29.82,South,186,5.0,8.0,83,0.00,,OVC090,0.02,VWS V14.01,2013-01-11 09:21:00,
2013-01-11 03:26:00,58.0,52.9,29.82,South,186,0.0,6.0,83,0.00,,OVC090,0.02,VWS V14.01,2013-01-11 09:26:00,
2013-01-11 03:31:00,58.0,52.9,29.83,SW,219,3.0,6.0,83,0.00,,OVC090,0.02,VWS V14.01,2013-01-11 09:31:00,
2013-01-11 03:36:00,57.9,52.8,29.82,SW,214,0.0,6.0,83,0.00,,OVC090,0.02,VWS V14.01,2013-01-11 09:36:00,
2013-01-11 03:41:00,57.9,52.8,29.82,SSW,212,1.0,8.0,83,0.00,,BKN055,0.02,VWS V14.01,2013-01-11 09:41:00,
2013-01-11 03:46:00,57.8,52.7,29.83,WSW,250,4.0,8.0,83,0.00,,BKN055,0.02,VWS V14.01,2013-01-11 09:46:00,
2013-01-11 03:51:00,57.7,52.6,29.83,SSW,198,3.0,8.0,83,0.00,,OVC055,0.02,VWS V14.01,2013-01-11 09:51:00,
2013-01-11 03:56:00,57.5,52.4,29.82,SSW,211,4.0,7.0,83,0.00,,OVC055,0.02,VWS V14.01,2013-01-11 09:56:00,
2013-01-11 04:01:00,57.3,52.2,29.83,SSW,210,4.0,7.0,83,0.00,,OVC055,0.02,VWS V14.01,2013-01-11 10:01:00,
2013-01-11 04:06:00,57.2,52.1,29.83,WSW,239,3.0,10.0,83,0.00,,OVC055,0.02,VWS V14.01,2013-01-11 10:06:00,
2013-01-11 04:11:00,56.9,51.8,29.82,SW,219,2.0,10.0,83,0.00,,OVC055,0.02,VWS V14.01,2013-01-11 10:11:00,
2013-01-11 04:16:00,56.6,51.5,29.82,SSW,198,3.0,6.0,83,0.00,,OVC055,0.02,VWS V14.01,2013-01-11 10:16:00,
2013-01-11 04:21:00,56.3,51.2,29.82,SSW,202,3.0,6.0,83,0.00,,OVC055,0.02,VWS V14.01,2013-01-11 10:21:00,
2013-01-11 04:26:00,56.1,51.0,29.82,SW,223,4.0,13.0,83,0.00,,OVC055,0.02,VWS V14.01,2013-01-11 10:26:00,
2013-01-11 04:31:00,56.1,51.0,29.82,SW,232,5.0,13.0,83,0.00,,OVC070,0.02,VWS V14.01,2013-01-11 10:31:00,
2013-01-11 04:36:00,56.1,50.7,29.82,SW,234,4.0,12.0,82,0.00,,OVC070,0.02,VWS V14.01,2013-01-11 10:36:00,
2013-01-11 04:41:00,56.1,50.7,29.82,WSW,240,0.0,12.0,82,0.00,,SCT080,0.02,VWS V14.01,2013-01-11 10:41:00,
2013-01-11 04:46:00,55.9,50.5,29.82,SW,234,3.0,5.0,82,0.00,,SCT080,0.02,VWS V14.01,2013-01-11 10:46:00,
2013-01-11 04:51:00,55.8,50.4,29.82,SW,234,7.0,7.0,82,0.00,,SCT070,0.02,VWS V14.01,2013-01-11 10:51:00,
2013-01-11 04:56:00,55.6,50.2,29.82,SW,225,7.0,9.0,82,0.00,,SCT070,0.02,VWS V14.01,2013-01-11 10:56:00,
2013-01-11 05:01:00,55.5,50.1,29.82,SW,227,1.0,9.0,82,0.00,,SCT070,0.02,VWS V14.01,2013-01-11 11:01:00,
2013-01-11 05:06:00,55.3,49.9,29.82,SW,221,4.0,5.0,82,0.00,,SCT070,0.02,VWS V14.01,2013-01-11 11:06:00,
2013-01-11 05:11:00,55.1,49.7,29.82,SW,218,0.0,5.0,82,0.00,,SCT070,0.02,VWS V14.01,2013-01-11 11:11:00,
2013-01-11 05:16:00,54.9,49.5,29.83,SW,223,4.0,6.0,82,0.00,,SCT070,0.02,VWS V14.01,2013-01-11 11:16:00,
2013-01-11 05:21:00,54.7,49.3,29.83,SW,235,5.0,6.0,82,0.00,,SCT070,0.02,VWS V14.01,2013-01-11 11:21:00,
2013-01-11 05:26:00,54.7,49.3,29.83,SW,232,4.0,7.0,82,0.00,,SCT070,0.02,VWS V14.01,2013-01-11 11:26:00,
2013-01-11 05:31:00,54.7,49.3,29.83,WSW,242,5.0,7.0,82,0.00,,SCT070,0.02,VWS V14.01,2013-01-11 11:31:00,
2013-01-11 05:36:00,54.8,49.4,29.83,WSW,254,5.0,10.0,82,0.00,,SCT070,0.02,VWS V14.01,2013-01-11 11:36:00,
2013-01-11 05:41:00,54.8,49.4,29.84,SW,225,3.0,10.0,82,0.00,,CLR,0.02,VWS V14.01,2013-01-11 11:41:00,
2013-01-11 05:46:00,54.8,49.1,29.83,SW,217,3.0,9.0,81,0.00,,CLR,0.02,VWS V14.01,2013-01-11 11:46:00,
2013-01-11 05:51:00,54.8,49.1,29.84,SW,222,3.0,9.0,81,0.00,,BKN048,0.02,VWS V14.01,2013-01-11 11:51:00,
2013-01-11 05:56:00,54.8,49.1,29.84,SW,218,1.0,9.0,81,0.00,,BKN048,0.02,VWS V14.01,2013-01-11 11:56:00,
2013-01-11 06:01:00,54.6,48.9,29.84,SW,221,0.0,0.0,81,0.00,,BKN048,0.02,VWS V14.01,2013-01-11 12:01:00,
2013-01-11 06:06:00,54.4,48.7,29.84,SW,215,0.0,5.0,81,0.00,,BKN048,0.02,VWS V14.01,2013-01-11 12:06:00,
2013-01-11 06:11:00,54.1,48.4,29.85,SW,215,0.0,1.0,81,0.00,,BKN048,0.02,VWS V14.01,2013-01-11 12:11:00,
2013-01-11 06:16:00,53.9,48.5,29.85,SSW,198,1.0,6.0,82,0.00,,BKN048,0.02,VWS V14.01,2013-01-11 12:16:00,
2013-01-11 06:21:00,53.8,48.4,29.85,SW,234,0.0,0.0,82,0.00,,BKN048,0.02,VWS V14.01,2013-01-11 12:21:00,
2013-01-11 06:26:00,53.7,48.3,29.85,SW,217,3.0,5.0,82,0.00,,BKN048,0.02,VWS V14.01,2013-01-11 12:26:00,
2013-01-11 06:31:00,53.6,48.2,29.85,West,267,4.0,4.0,82,0.00,,OVC048,0.02,VWS V14.01,2013-01-11 12:31:00,
2013-01-11 06:36:00,53.5,48.2,29.86,WSW,256,8.0,8.0,82,0.00,,OVC048,0.02,VWS V14.01,2013-01-11 12:36:00,
2013-01-11 06:41:00,53.5,48.2,29.87,WSW,249,6.0,6.0,82,0.00,,SCT048,0.02,VWS V14.01,2013-01-11 12:41:00,
2013-01-11 06:46:00,53.4,48.0,29.87,WSW,251,5.0,8.0,82,0.00,,SCT048,0.02,VWS V14.01,2013-01-11 12:46:00,
2013-01-11 06:51:00,53.3,48.0,29.87,SW,214,3.0,5.0,82,0.00,,CLR,0.02,VWS V14.01,2013-01-11 12:51:00,
2013-01-11 06:56:00,53.3,48.0,29.87,SW,227,4.0,9.0,82,0.00,,CLR,0.02,VWS V14.01,2013-01-11 12:56:00,
2013-01-11 07:01:00,53.3,48.0,29.87,SW,225,7.0,7.0,82,0.00,,CLR,0.02,VWS V14.01,2013-01-11 13:01:00,
2013-01-11 07:06:00,53.3,48.0,29.88,WSW,251,8.0,9.0,82,0.00,,CLR,0.02,VWS V14.01,2013-01-11 13:06:00,
2013-01-11 07:11:00,53.3,48.0,29.88,SW,236,1.0,2.0,82,0.00,,CLR,0.02,VWS V14.01,2013-01-11 13:11:00,
2013-01-11 07:16:00,53.3,48.0,29.88,WSW,243,5.0,7.0,82,0.00,,CLR,0.02,VWS V14.01,2013-01-11 13:16:00,
2013-01-11 07:21:00,53.4,48.0,29.88,SW,219,3.0,4.0,82,0.00,,CLR,0.02,VWS V14.01,2013-01-11 13:21:00,
2013-01-11 07:26:00,53.4,48.0,29.88,SW,228,7.0,10.0,82,0.00,,CLR,0.02,VWS V14.01,2013-01-11 13:26:00,
2013-01-11 07:31:00,53.4,48.0,29.89,South,170,6.0,8.0,82,0.00,,BKN050,0.02,VWS V14.01,2013-01-11 13:31:00,
2013-01-11 07:36:00,53.5,48.2,29.89,WSW,240,2.0,13.0,82,0.00,,BKN050,0.02,VWS V14.01,2013-01-11 13:36:00,
2013-01-11 07:41:00,53.5,48.2,29.89,SSW,207,5.0,5.0,82,0.00,,OVC050,0.02,VWS V14.01,2013-01-11 13:41:00,
2013-01-11 07:46:00,53.5,48.2,29.90,South,190,3.0,9.0,82,0.00,,OVC050,0.02,VWS V14.01,2013-01-11 13:46:00,
2013-01-11 07:51:00,53.4,48.0,29.90,SSW,209,5.0,9.0,82,0.00,,OVC033,0.02,VWS V14.01,2013-01-11 13:51:00,
2013-01-11 07:56:00,53.5,48.2,29.90,SSW,204,6.0,9.0,82,0.00,,OVC033,0.02,VWS V14.01,2013-01-11 13:56:00,
2013-01-11 08:01:00,53.5,48.2,29.89,SSW,206,2.0,4.0,82,0.00,,OVC033,0.02,VWS V14.01,2013-01-11 14:01:00,
2013-01-11 08:06:00,53.4,48.0,29.89,SW,217,2.0,10.0,82,0.00,,OVC033,0.02,VWS V14.01,2013-01-11 14:06:00,
2013-01-11 08:11:00,53.2,47.9,29.89,SSW,212,3.0,3.0,82,0.00,,OVC033,0.02,VWS V14.01,2013-01-11 14:11:00,
2013-01-11 08:16:00,53.1,47.8,29.89,SW,226,3.0,8.0,82,0.00,,OVC033,0.02,VWS V14.01,2013-01-11 14:16:00,
2013-01-11 08:21:00,53.0,47.7,29.89,SSW,200,4.0,4.0,82,0.00,,OVC033,0.02,VWS V14.01,2013-01-11 14:21:00,
2013-01-11 08:26:00,52.9,47.6,29.90,SSW,205,2.0,6.0,82,0.00,,OVC033,0.02,VWS V14.01,2013-01-11 14:26:00,
2013-01-11 08:31:00,53.1,47.8,29.90,South,185,6.0,8.0,82,0.00,,BKN033,0.02,VWS V14.01,2013-01-11 14:31:00,
2013-01-11 08:36:00,53.4,48.0,29.90,SSW,200,5.0,12.0,82,0.00,,BKN033,0.02,VWS V14.01,2013-01-11 14:36:00,
2013-01-11 08:41:00,53.7,48.3,29.91,SW,217,3.0,3.0,82,0.00,,SCT033,0.02,VWS V14.01,2013-01-11 14:41:00,
2013-01-11 08:46:00,53.8,48.1,29.91,SSW,205,2.0,9.0,81,0.00,,SCT033,0.02,VWS V14.01,2013-01-11 14:46:00,
2013-01-11 08:51:00,53.7,48.0,29.90,SW,220,3.0,4.0,81,0.00,,CLR,0.02,VWS V14.01,2013-01-11 14:51:00,
2013-01-11 08:56:00,53.6,47.9,29.91,WSW,238,2.0,9.0,81,0.00,,CLR,0.02,VWS V14.01,2013-01-11 14:56:00,
2013-01-11 09:01:00,53.7,48.0,29.91,SSW,205,4.0,6.0,81,0.00,,CLR,0.02,VWS V14.01,2013-01-11 15:01:00,
2013-01-11 09:06:00,53.9,47.9,29.91,SSW,213,10.0,12.0,80,0.00,,CLR,0.02,VWS V14.01,2013-01-11 15:06:00,
2013-01-11 09:11:00,54.0,48.0,29.91,SW,229,11.0,11.0,80,0.00,,CLR,0.02,VWS V14.01,2013-01-11 15:11:00,
2013-01-11 09:16:00,54.3,48.3,29.91,SSW,209,5.0,14.0,80,0.00,,CLR,0.02,VWS V14.01,2013-01-11 15:16:00,
2013-01-11 09:21:00,54.4,48.0,29.90,SSW,205,7.0,8.0,79,0.00,,CLR,0.02,VWS V14.01,2013-01-11 15:21:00,
2013-01-11 09:26:00,54.6,48.2,29.90,SW,221,7.0,11.0,79,0.00,,CLR,0.02,VWS V14.01,2013-01-11 15:26:00,
2013-01-11 09:31:00,54.9,48.2,29.90,SSW,204,6.0,8.0,78,0.00,,CLR,0.02,VWS V14.01,2013-01-11 15:31:00,
2013-01-11 09:36:00,54.9,48.5,29.90,South,191,4.0,8.0,79,0.00,,CLR,0.02,VWS V14.01,2013-01-11 15:36:00,
2013-01-11 09:41:00,54.7,48.3,29.91,South,187,5.0,7.0,79,0.00,,CLR,0.02,VWS V14.01,2013-01-11 15:41:00,
2013-01-11 09:46:00,54.7,48.3,29.91,SW,225,4.0,10.0,79,0.00,,CLR,0.02,VWS V14.01,2013-01-11 15:46:00,
2013-01-11 09:51:00,55.0,48.6,29.91,SW,222,4.0,6.0,79,0.00,,CLR,0.02,VWS V14.01,2013-01-11 15:51:00,
2013-01-11 09:56:00,55.5,48.8,29.91,WSW,247,7.0,11.0,78,0.00,,CLR,0.02,VWS V14.01,2013-01-11 15:56:00,
2013-01-11 10:01:00,55.5,48.4,29.91,SSW,198,3.0,9.0,77,0.00,,CLR,0.02,VWS V14.01,2013-01-11 16:01:00,
2013-01-11 10:06:00,55.6,48.5,29.91,WSW,242,5.0,12.0,77,0.00,,CLR,0.02,VWS V14.01,2013-01-11 16:06:00,
2013-01-11 10:11:00,55.7,49.0,29.90,South,182,8.0,8.0,78,0.00,,CLR,0.02,VWS V14.01,2013-01-11 16:11:00,
2013-01-11 10:16:00,55.7,48.6,29.90,SSW,212,4.0,13.0,77,0.00,,CLR,0.02,VWS V14.01,2013-01-11 16:16:00,
2013-01-11 10:22:00,55.9,48.8,29.90,SSW,199,7.0,9.0,77,0.00,,CLR,0.02,VWS V14.01,2013-01-11 16:22:00,
2013-01-11 10:27:00,56.2,49.1,29.90,SSW,196,5.0,12.0,77,0.00,,CLR,0.02,VWS V14.01,2013-01-11 16:27:00,
2013-01-11 10:32:00,56.5,49.4,29.90,South,181,4.0,4.0,77,0.00,,CLR,0.02,VWS V14.01,2013-01-11 16:32:00,
2013-01-11 10:37:00,56.6,49.5,29.90,SSW,194,8.0,14.0,77,0.00,,CLR,0.02,VWS V14.01,2013-01-11 16:37:00,
2013-01-11 10:42:00,56.3,48.8,29.91,SSW,204,6.0,9.0,76,0.00,,CLR,0.02,VWS V14.01,2013-01-11 16:42:00,
2013-01-11 10:47:00,56.0,48.9,29.90,WSW,244,7.0,11.0,77,0.00,,CLR,0.02,VWS V14.01,2013-01-11 16:47:00,
2013-01-11 10:52:00,55.9,48.8,29.90,SSW,203,5.0,8.0,77,0.00,,CLR,0.02,VWS V14.01,2013-01-11 16:52:00,
2013-01-11 10:57:00,55.9,48.5,29.89,SSW,198,10.0,17.0,76,0.00,,CLR,0.02,VWS V14.01,2013-01-11 16:57:00,
2013-01-11 11:02:00,55.8,48.7,29.89,SSW,200,11.0,11.0,77,0.00,,CLR,0.02,VWS V14.01,2013-01-11 17:02:00,
2013-01-11 11:07:00,55.9,49.2,29.89,South,169,8.0,13.0,78,0.00,,CLR,0.02,VWS V14.01,2013-01-11 17:07:00,
2013-01-11 11:12:00,56.1,49.0,29.89,South,188,12.0,12.0,77,0.00,,CLR,0.02,VWS V14.01,2013-01-11 17:12:00,
2013-01-11 11:17:00,56.4,49.3,29.88,SSW,198,7.0,12.0,77,0.00,,CLR,0.02,VWS V14.01,2013-01-11 17:17:00,
2013-01-11 11:22:00,56.9,49.8,29.88,SSW,210,5.0,9.0,77,0.00,,CLR,0.02,VWS V14.01,2013-01-11 17:22:00,
2013-01-11 11:27:00,57.9,50.7,29.88,SSE,165,7.0,9.0,77,0.00,,CLR,0.02,VWS V14.01,2013-01-11 17:27:00,
2013-01-11 11:32:00,58.4,50.9,29.88,SW,215,3.0,8.0,76,0.00,,CLR,0.02,VWS V14.01,2013-01-11 17:32:00,
2013-01-11 11:37:00,58.4,51.2,29.88,South,182,12.0,18.0,77,0.00,,CLR,0.02,VWS V14.01,2013-01-11 17:37:00,
2013-01-11 11:42:00,58.2,50.7,29.88,South,184,10.0,13.0,76,0.00,,CLR,0.02,VWS V14.01,2013-01-11 17:42:00,
2013-01-11 11:47:00,58.2,51.0,29.88,South,188,5.0,13.0,77,0.00,,CLR,0.02,VWS V14.01,2013-01-11 17:47:00,
2013-01-11 11:52:00,57.9,50.7,29.87,SW,224,9.0,17.0,77,0.00,,CLR,0.02,VWS V14.01,2013-01-11 17:52:00,
2013-01-11 11:57:00,57.8,51.0,29.86,SSW,201,6.0,17.0,78,0.00,,CLR,0.02,VWS V14.01,2013-01-11 17:57:00,
2013-01-11 12:02:00,57.5,50.4,29.87,SSW,200,8.0,9.0,77,0.00,,CLR,0.02,VWS V14.01,2013-01-11 18:02:00,
2013-01-11 12:07:00,57.6,51.1,29.86,South,191,6.0,14.0,79,0.00,,CLR,0.02,VWS V14.01,2013-01-11 18:07:00,
2013-01-11 12:12:00,58.2,50.7,29.85,South,177,16.0,16.0,76,0.00,,CLR,0.02,VWS V14.01,2013-01-11 18:12:00,
2013-01-11 12:17:00,58.4,50.9,29.85,South,181,14.0,16.0,76,0.00,,CLR,0.02,VWS V14.01,2013-01-11 18:17:00,
2013-01-11 12:22:00,58.0,50.5,29.85,SSW,196,10.0,17.0,76,0.00,,CLR,0.02,VWS V14.01,2013-01-11 18:22:00,
2013-01-11 12:27:00,58.1,50.2,29.85,South,190,14.0,17.0,75,0.00,,CLR,0.02,VWS V14.01,2013-01-11 18:27:00,
2013-01-11 12:32:00,58.3,50.4,29.85,South,190,11.0,12.0,75,0.00,,CLR,0.02,VWS V14.01,2013-01-11 18:32:00,
2013-01-11 12:37:00,58.7,50.8,29.85,SSW,196,10.0,14.0,75,0.00,,CLR,0.02,VWS V14.01,2013-01-11 18:37:00,
2013-01-11 12:42:00,59.2,50.6,29.85,SSW,198,7.0,22.0,73,0.00,,SCT019,0.02,VWS V14.01,2013-01-11 18:42:00,
2013-01-11 12:47:00,59.4,50.0,29.84,South,186,11.0,22.0,71,0.00,,SCT019,0.02,VWS V14.01,2013-01-11 18:47:00,
2013-01-11 12:52:00,59.9,50.9,29.84,South,186,12.0,17.0,72,0.00,,CLR,0.02,VWS V14.01,2013-01-11 18:52:00,
2013-01-11 12:57:00,60.2,51.2,29.84,South,180,15.0,18.0,72,0.00,,CLR,0.02,VWS V14.01,2013-01-11 18:57:00,
2013-01-11 13:02:00,60.2,51.2,29.84,SSW,198,5.0,7.0,72,0.00,,CLR,0.02,VWS V14.01,2013-01-11 19:02:00,
2013-01-11 13:07:00,60.2,51.2,29.83,SSW,198,11.0,21.0,72,0.00,,CLR,0.02,VWS V14.01,2013-01-11 19:07:00,
2013-01-11 13:12:00,59.9,50.1,29.83,South,184,11.0,19.0,70,0.00,,CLR,0.02,VWS V14.01,2013-01-11 19:12:00,
2013-01-11 13:17:00,59.5,50.5,29.83,South,173,9.0,19.0,72,0.00,,CLR,0.02,VWS V14.01,2013-01-11 19:17:00,
2013-01-11 13:22:00,59.6,50.6,29.84,South,184,11.0,16.0,72,0.00,,CLR,0.02,VWS V14.01,2013-01-11 19:22:00,
2013-01-11 13:27:00,59.7,50.7,29.84,SW,222,9.0,16.0,72,0.00,,CLR,0.02,VWS V14.01,2013-01-11 19:27:00,
2013-01-11 13:32:00,59.8,51.1,29.84,SSE,159,7.0,12.0,73,0.00,,CLR,0.02,VWS V14.01,2013-01-11 19:32:00,
2013-01-11 13:37:00,60.0,51.0,29.84,SSW,204,6.0,19.0,72,0.00,,CLR,0.02,VWS V14.01,2013-01-11 19:37:00,
2013-01-11 13:42:00,59.9,51.2,29.84,South,178,16.0,16.0,73,0.00,,CLR,0.02,VWS V14.01,2013-01-11 19:42:00,
2013-01-11 13:47:00,59.7,51.0,29.83,South,172,9.0,18.0,73,0.00,,CLR,0.02,VWS V14.01,2013-01-11 19:47:00,
2013-01-11 13:52:00,59.9,51.2,29.84,SSW,198,15.0,17.0,73,0.00,,CLR,0.02,VWS V14.01,2013-01-11 19:52:00,
2013-01-11 13:57:00,60.0,51.3,29.83,South,187,12.0,19.0,73,0.00,,CLR,0.02,VWS V14.01,2013-01-11 19:57:00,
2013-01-11 14:02:00,60.1,51.4,29.83,South,185,10.0,13.0,73,0.00,,CLR,0.02,VWS V14.01,2013-01-11 20:02:00,
2013-01-11 14:07:00,60.5,51.8,29.83,SE,132,6.0,13.0,73,0.00,,CLR,0.02,VWS V14.01,2013-01-11 20:07:00,
2013-01-11 14:12:00,60.8,51.7,29.83,SSW,193,8.0,13.0,72,0.00,,CLR,0.02,VWS V14.01,2013-01-11 20:12:00,
2013-01-11 14:17:00,60.9,51.5,29.83,SSW,200,14.0,18.0,71,0.00,,CLR,0.02,VWS V14.01,2013-01-11 20:17:00,
2013-01-11 14:22:00,60.9,51.5,29.83,SW,219,14.0,19.0,71,0.00,,CLR,0.02,VWS V14.01,2013-01-11 20:22:00,
2013-01-11 14:27:00,60.7,51.2,29.83,SSW,198,8.0,19.0,71,0.00,,CLR,0.02,VWS V14.01,2013-01-11 20:27:00,
2013-01-11 14:32:00,60.5,50.7,29.83,South,181,12.0,21.0,70,0.00,,,0.02,VWS V14.01,2013-01-11 20:32:00,
2013-01-11 14:37:00,60.4,50.6,29.83,South,177,19.0,21.0,70,0.00,,,0.02,VWS V14.01,2013-01-11 20:37:00,
2013-01-11 14:42:00,60.4,50.6,29.83,South,187,11.0,21.0,70,0.00,,CLR,0.02,VWS V14.01,2013-01-11 20:42:00,
2013-01-11 14:47:00,60.1,50.7,29.83,South,186,8.0,21.0,71,0.00,,CLR,0.02,VWS V14.01,2013-01-11 20:47:00,
2013-01-11 14:52:00,60.3,50.9,29.83,SSW,205,10.0,19.0,71,0.00,,CLR,0.02,VWS V14.01,2013-01-11 20:52:00,
2013-01-11 14:57:00,60.3,50.5,29.83,WSW,250,4.0,21.0,70,0.00,,CLR,0.02,VWS V14.01,2013-01-11 20:57:00,
2013-01-11 15:02:00,60.4,51.0,29.84,South,190,10.0,14.0,71,0.00,,CLR,0.02,VWS V14.01,2013-01-11 21:02:00,
2013-01-11 15:07:00,60.4,50.6,29.84,South,186,12.0,19.0,70,0.00,,CLR,0.02,VWS V14.01,2013-01-11 21:07:00,
2013-01-11 15:12:00,60.4,51.0,29.84,South,178,17.0,22.0,71,0.00,,CLR,0.02,VWS V14.01,2013-01-11 21:12:00,
2013-01-11 15:17:00,60.3,50.9,29.84,SSW,198,10.0,22.0,71,0.00,,CLR,0.02,VWS V14.01,2013-01-11 21:17:00,
2013-01-11 15:22:00,60.1,50.7,29.83,South,187,14.0,16.0,71,0.00,,CLR,0.02,VWS V14.01,2013-01-11 21:22:00,
2013-01-11 15:27:00,59.9,50.5,29.83,South,182,12.0,16.0,71,0.00,,CLR,0.02,VWS V14.01,2013-01-11 21:27:00,
2013-01-11 15:32:00,59.9,51.2,29.84,South,180,7.0,12.0,73,0.00,,CLR,0.02,VWS V14.01,2013-01-11 21:32:00,
2013-01-11 15:37:00,60.0,51.7,29.83,South,181,8.0,12.0,74,0.00,,CLR,0.02,VWS V14.01,2013-01-11 21:37:00,
2013-01-11 15:42:00,59.9,51.6,29.84,South,186,3.0,7.0,74,0.00,,CLR,0.02,VWS V14.01,2013-01-11 21:42:00,
2013-01-11 15:47:00,59.7,51.4,29.84,SSW,204,8.0,12.0,74,0.00,,CLR,0.02,VWS V14.01,2013-01-11 21:47:00,
2013-01-11 15:52:00,59.4,51.5,29.84,SSW,192,6.0,11.0,75,0.00,,CLR,0.02,VWS V14.01,2013-01-11 21:52:00,
2013-01-11 15:57:00,59.0,50.7,29.84,SSW,205,9.0,18.0,74,0.00,,CLR,0.02,VWS V14.01,2013-01-11 21:57:00,
2013-01-11 16:02:00,58.9,51.0,29.84,SSW,207,12.0,12.0,75,0.00,,CLR,0.02,VWS V14.01,2013-01-11 22:02:00,
2013-01-11 16:07:00,58.8,50.9,29.84,South,180,5.0,16.0,75,0.00,,CLR,0.02,VWS V14.01,2013-01-11 22:07:00,
2013-01-11 16:12:00,58.6,50.7,29.84,South,183,11.0,13.0,75,0.00,,CLR,0.02,VWS V14.01,2013-01-11 22:12:00,
2013-01-11 16:17:00,58.3,50.8,29.84,South,171,6.0,14.0,76,0.00,,CLR,0.02,VWS V14.01,2013-01-11 22:17:00,
2013-01-11 16:22:00,58.1,50.6,29.84,SSE,165,11.0,16.0,76,0.00,,CLR,0.02,VWS V14.01,2013-01-11 22:22:00,
2013-01-11 16:27:00,58.0,50.5,29.84,SSW,193,3.0,16.0,76,0.00,,CLR,0.02,VWS V14.01,2013-01-11 22:27:00,
2013-01-11 16:32:00,57.7,50.2,29.84,South,184,8.0,9.0,76,0.00,,CLR,0.02,VWS V14.01,2013-01-11 22:32:00,
2013-01-11 16:37:00,57.6,50.5,29.84,South,170,10.0,13.0,77,0.00,,CLR,0.02,VWS V14.01,2013-01-11 22:37:00,
2013-01-11 16:42:00,57.5,50.4,29.84,South,179,12.0,13.0,77,0.00,,CLR,0.02,VWS V14.01,2013-01-11 22:42:00,
2013-01-11 16:47:00,57.4,50.3,29.84,South,171,7.0,13.0,77,0.00,,CLR,0.02,VWS V14.01,2013-01-11 22:47:00,
2013-01-11 16:52:00,57.4,50.3,29.84,South,169,6.0,8.0,77,0.00,,CLR,0.02,VWS V14.01,2013-01-11 22:52:00,
2013-01-11 16:57:00,57.2,50.1,29.84,South,184,7.0,14.0,77,0.00,,CLR,0.02,VWS V14.01,2013-01-11 22:57:00,
2013-01-11 17:02:00,57.0,49.9,29.84,SSE,163,4.0,6.0,77,0.00,,CLR,0.02,VWS V14.01,2013-01-11 23:02:00,
2013-01-11 17:07:00,56.7,49.9,29.84,South,184,5.0,11.0,78,0.00,,CLR,0.02,VWS V14.01,2013-01-11 23:07:00,
2013-01-11 17:12:00,56.6,49.8,29.84,South,191,4.0,8.0,78,0.00,,CLR,0.02,VWS V14.01,2013-01-11 23:12:00,
2013-01-11 17:17:00,56.5,50.1,29.84,South,182,3.0,13.0,79,0.00,,CLR,0.02,VWS V14.01,2013-01-11 23:17:00,
2013-01-11 17:22:00,56.4,50.0,29.84,South,175,9.0,10.0,79,0.00,,CLR,0.02,VWS V14.01,2013-01-11 23:22:00,
2013-01-11 17:27:00,56.5,49.7,29.84,South,190,6.0,12.0,78,0.00,,CLR,0.02,VWS V14.01,2013-01-11 23:27:00,
2013-01-11 17:32:00,56.6,49.8,29.84,SSW,194,4.0,14.0,78,0.00,,CLR,0.02,VWS V14.01,2013-01-11 23:32:00,
2013-01-11 17:37:00,56.7,49.9,29.84,South,180,5.0,16.0,78,0.00,,CLR,0.02,VWS V14.01,2013-01-11 23:37:00,
2013-01-11 17:43:00,56.8,50.0,29.84,South,188,7.0,12.0,78,0.00,,CLR,0.02,VWS V14.01,2013-01-11 23:43:00,
2013-01-11 17:48:00,56.6,49.8,29.84,South,182,6.0,16.0,78,0.00,,CLR,0.02,VWS V14.01,2013-01-11 23:48:00,
2013-01-11 17:53:00,56.6,49.8,29.84,South,190,6.0,14.0,78,0.00,,CLR,0.02,VWS V14.01,2013-01-11 23:53:00,
2013-01-11 17:58:00,56.5,49.7,29.84,South,174,6.0,14.0,78,0.00,,CLR,0.02,VWS V14.01,2013-01-11 23:58:00,
2013-01-11 18:03:00,56.2,49.8,29.84,SSW,194,4.0,9.0,79,0.00,,CLR,0.02,VWS V14.01,2013-01-12 00:03:00,
2013-01-11 18:08:00,56.0,49.6,29.84,SSE,168,5.0,11.0,79,0.00,,CLR,0.02,VWS V14.01,2013-01-12 00:08:00,
2013-01-11 18:13:00,55.9,49.5,29.84,South,182,5.0,9.0,79,0.00,,CLR,0.02,VWS V14.01,2013-01-12 00:13:00,
2013-01-11 18:18:00,55.8,49.4,29.84,SSE,153,4.0,13.0,79,0.00,,CLR,0.02,VWS V14.01,2013-01-12 00:18:00,
2013-01-11 18:23:00,55.8,49.4,29.84,SSW,209,8.0,12.0,79,0.00,,CLR,0.02,VWS V14.01,2013-01-12 00:23:00,
2013-01-11 18:28:00,55.7,49.6,29.84,South,184,6.0,13.0,80,0.00,,CLR,0.02,VWS V14.01,2013-01-12 00:28:00,
2013-01-11 18:33:00,55.5,49.4,29.85,South,171,7.0,8.0,80,0.00,,CLR,0.02,VWS V14.01,2013-01-12 00:33:00,
2013-01-11 18:38:00,55.4,49.3,29.85,SSW,207,6.0,14.0,80,0.00,,CLR,0.02,VWS V14.01,2013-01-12 00:38:00,
2013-01-11 18:43:00,55.2,49.2,29.85,South,182,10.0,10.0,80,0.00,,CLR,0.02,VWS V14.01,2013-01-12 00:43:00,
2013-01-11 18:48:00,55.1,49.0,29.85,SSE,161,4.0,10.0,80,0.00,,CLR,0.02,VWS V14.01,2013-01-12 00:48:00,
2013-01-11 18:53:00,54.8,48.8,29.84,South,181,2.0,8.0,80,0.00,,CLR,0.02,VWS V14.01,2013-01-12 00:53:00,
2013-01-11 18:58:00,54.8,49.1,29.85,South,184,9.0,11.0,81,0.00,,CLR,0.02,VWS V14.01,2013-01-12 00:58:00,
2013-01-11 19:03:00,54.8,49.1,29.85,South,187,7.0,13.0,81,0.00,,CLR,0.02,VWS V14.01,2013-01-12 01:03:00,
2013-01-11 19:08:00,54.8,49.1,29.85,South,173,11.0,13.0,81,0.00,,CLR,0.02,VWS V14.01,2013-01-12 01:08:00,
2013-01-11 19:13:00,54.8,48.8,29.85,South,180,5.0,10.0,80,0.00,,CLR,0.02,VWS V14.01,2013-01-12 01:13:00,
2013-01-11 19:18:00,54.9,48.9,29.85,South,182,10.0,11.0,80,0.00,,CLR,0.02,VWS V14.01,2013-01-12 01:18:00,
2013-01-11 19:23:00,55.0,49.3,29.85,South,186,9.0,11.0,81,0.00,,CLR,0.02,VWS V14.01,2013-01-12 01:23:00,
2013-01-11 19:28:00,55.1,49.0,29.85,South,186,6.0,11.0,80,0.00,,CLR,0.02,VWS V14.01,2013-01-12 01:28:00,
2013-01-11 19:33:00,55.1,49.0,29.85,SSE,159,2.0,10.0,80,0.00,,CLR,0.02,VWS V14.01,2013-01-12 01:33:00,
2013-01-11 19:38:00,55.1,49.0,29.85,SSW,192,7.0,14.0,80,0.00,,CLR,0.02,VWS V14.01,2013-01-12 01:38:00,
2013-01-11 19:43:00,55.2,49.2,29.85,South,184,6.0,16.0,80,0.00,,CLR,0.02,VWS V14.01,2013-01-12 01:43:00,
2013-01-11 19:48:00,55.4,49.3,29.85,South,178,9.0,16.0,80,0.00,,CLR,0.02,VWS V14.01,2013-01-12 01:48:00,
2013-01-11 19:53:00,55.5,49.4,29.84,South,184,13.0,13.0,80,0.00,,CLR,0.02,VWS V14.01,2013-01-12 01:53:00,
2013-01-11 19:58:00,55.5,49.1,29.84,South,189,5.0,14.0,79,0.00,,CLR,0.02,VWS V14.01,2013-01-12 01:58:00,
2013-01-11 20:03:00,55.5,49.1,29.85,SSW,194,9.0,14.0,79,0.00,,CLR,0.02,VWS V14.01,2013-01-12 02:03:00,
2013-01-11 20:08:00,55.3,48.9,29.85,SSW,196,10.0,14.0,79,0.00,,CLR,0.02,VWS V14.01,2013-01-12 02:08:00,
2013-01-11 20:13:00,55.2,48.8,29.84,South,190,11.0,12.0,79,0.00,,CLR,0.02,VWS V14.01,2013-01-12 02:13:00,
2013-01-11 20:18:00,55.1,49.0,29.84,South,180,5.0,12.0,80,0.00,,CLR,0.02,VWS V14.01,2013-01-12 02:18:00,
2013-01-11 20:23:00,54.9,48.9,29.84,South,191,4.0,9.0,80,0.00,,CLR,0.02,VWS V14.01,2013-01-12 02:23:00,
2013-01-11 20:28:00,54.7,48.7,29.84,South,182,7.0,10.0,80,0.00,,CLR,0.02,VWS V14.01,2013-01-12 02:28:00,
2013-01-11 20:33:00,54.8,48.8,29.84,South,173,12.0,14.0,80,0.00,,CLR,0.02,VWS V14.01,2013-01-12 02:33:00,
2013-01-11 20:38:00,54.8,48.8,29.84,SSE,159,4.0,14.0,80,0.00,,CLR,0.02,VWS V14.01,2013-01-12 02:38:00,
2013-01-11 20:43:00,54.9,48.9,29.84,South,178,15.0,15.0,80,0.00,,CLR,0.02,VWS V14.01,2013-01-12 02:43:00,
2013-01-11 20:48:00,55.1,48.7,29.84,SSE,158,12.0,16.0,79,0.00,,CLR,0.02,VWS V14.01,2013-01-12 02:48:00,
2013-01-11 20:53:00,55.2,48.8,29.84,SSW,202,7.0,18.0,79,0.00,,CLR,0.02,VWS V14.01,2013-01-12 02:53:00,
2013-01-11 20:58:00,55.3,48.9,29.84,South,186,11.0,18.0,79,0.00,,CLR,0.02,VWS V14.01,2013-01-12 02:58:00,
2013-01-11 21:03:00,55.3,48.9,29.84,SSW,205,8.0,11.0,79,0.00,,CLR,0.02,VWS V14.01,2013-01-12 03:03:00,
2013-01-11 21:08:00,55.3,48.9,29.84,South,187,11.0,13.0,79,0.00,,CLR,0.02,VWS V14.01,2013-01-12 03:08:00,
2013-01-11 21:13:00,55.3,48.9,29.84,SSW,201,12.0,18.0,79,0.00,,CLR,0.02,VWS V14.01,2013-01-12 03:13:00,
2013-01-11 21:18:00,55.3,48.9,29.84,South,186,9.0,18.0,79,0.00,,CLR,0.02,VWS V14.01,2013-01-12 03:18:00,
2013-01-11 21:23:00,55.2,48.8,29.84,SSE,166,7.0,13.0,79,0.00,,CLR,0.02,VWS V14.01,2013-01-12 03:23:00,
2013-01-11 21:28:00,55.3,48.9,29.84,South,189,5.0,18.0,79,0.00,,CLR,0.02,VWS V14.01,2013-01-12 03:28:00,
2013-01-11 21:33:00,55.2,48.8,29.84,South,190,7.0,12.0,79,0.00,,CLR,0.02,VWS V14.01,2013-01-12 03:33:00,
2013-01-11 21:38:00,55.1,48.7,29.84,South,178,9.0,13.0,79,0.00,,CLR,0.02,VWS V14.01,2013-01-12 03:38:00,
2013-01-11 21:43:00,54.9,48.5,29.83,SSE,162,9.0,12.0,79,0.00,,CLR,0.02,VWS V14.01,2013-01-12 03:43:00,
2013-01-11 21:48:00,54.8,48.4,29.83,South,184,10.0,12.0,79,0.00,,CLR,0.02,VWS V14.01,2013-01-12 03:48:00,
2013-01-11 21:53:00,54.6,48.2,29.83,South,182,10.0,10.0,79,0.00,,CLR,0.02,VWS V14.01,2013-01-12 03:53:00,
2013-01-11 21:58:00,54.8,48.4,29.83,SSW,200,9.0,17.0,79,0.00,,CLR,0.02,VWS V14.01,2013-01-12 03:58:00,
2013-01-11 22:03:00,54.9,48.5,29.83,SSW,199,10.0,12.0,79,0.00,,CLR,0.02,VWS V14.01,2013-01-12 04:03:00,
2013-01-11 22:08:00,54.8,48.4,29.83,South,186,7.0,13.0,79,0.00,,CLR,0.02,VWS V14.01,2013-01-12 04:08:00,
2013-01-11 22:13:00,54.8,48.4,29.83,SSW,206,10.0,10.0,79,0.00,,CLR,0.02,VWS V14.01,2013-01-12 04:13:00,
2013-01-11 22:18:00,55.1,48.7,29.84,South,190,9.0,16.0,79,0.00,,CLR,0.02,VWS V14.01,2013-01-12 04:18:00,
2013-01-11 22:23:00,55.2,48.8,29.84,SSW,196,7.0,15.0,79,0.00,,CLR,0.02,VWS V14.01,2013-01-12 04:23:00,
2013-01-11 22:28:00,55.2,48.5,29.83,South,188,11.0,20.0,78,0.00,,CLR,0.02,VWS V14.01,2013-01-12 04:28:00,
2013-01-11 22:33:00,55.1,48.4,29.83,SSW,211,12.0,16.0,78,0.00,,CLR,0.02,VWS V14.01,2013-01-12 04:33:00,
2013-01-11 22:38:00,55.2,48.5,29.83,South,183,10.0,17.0,78,0.00,,CLR,0.02,VWS V14.01,2013-01-12 04:38:00,
2013-01-11 22:43:00,55.1,48.4,29.83,South,180,13.0,13.0,78,0.00,,CLR,0.02,VWS V14.01,2013-01-12 04:43:00,
2013-01-11 22:48:00,55.2,48.5,29.83,South,189,6.0,16.0,78,0.00,,CLR,0.02,VWS V14.01,2013-01-12 04:48:00,
2013-01-11 22:53:00,55.2,48.5,29.83,South,184,9.0,13.0,78,0.00,,CLR,0.02,VWS V14.01,2013-01-12 04:53:00,
2013-01-11 22:58:00,55.2,48.5,29.83,South,182,9.0,17.0,78,0.00,,CLR,0.02,VWS V14.01,2013-01-12 04:58:00,
2013-01-11 23:01:00,55.2,48.5,29.83,South,180,13.0,17.0,78,0.00,,CLR,0.02,VWS V14.01,2013-01-12 05:01:00,
2013-01-11 23:08:00,55.4,48.7,29.83,SSW,194,9.0,17.0,78,0.00,,CLR,0.02,VWS V14.01,2013-01-12 05:08:00,
2013-01-11 23:11:00,55.4,48.7,29.83,SSW,200,6.0,17.0,78,0.00,,CLR,0.02,VWS V14.01,2013-01-12 05:11:00,
2013-01-11 23:18:00,55.5,48.4,29.83,SSW,196,7.0,16.0,77,0.00,,CLR,0.02,VWS V14.01,2013-01-12 05:18:00,
2013-01-11 23:23:00,55.5,48.4,29.84,SSW,192,8.0,12.0,77,0.00,,CLR,0.02,VWS V14.01,2013-01-12 05:23:00,
2013-01-11 23:28:00,55.4,48.7,29.83,SSW,202,6.0,19.0,78,0.00,,CLR,0.02,VWS V14.01,2013-01-12 05:28:00,
2013-01-11 23:33:00,55.3,48.6,29.83,SSW,208,3.0,6.0,78,0.00,,CLR,0.02,VWS V14.01,2013-01-12 05:33:00,
2013-01-11 23:38:00,55.1,48.4,29.84,South,187,5.0,10.0,78,0.00,,CLR,0.02,VWS V14.01,2013-01-12 05:38:00,
2013-01-11 23:43:00,54.8,48.1,29.83,SSW,200,4.0,9.0,78,0.00,,CLR,0.02,VWS V14.01,2013-01-12 05:43:00,
2013-01-11 23:48:00,54.7,48.3,29.84,SW,218,4.0,10.0,79,0.00,,CLR,0.02,VWS V14.01,2013-01-12 05:48:00,
2013-01-11 23:53:00,54.6,48.2,29.84,South,186,7.0,10.0,79,0.00,,CLR,0.02,VWS V14.01,2013-01-12 05:53:00,
2013-01-11 23:58:00,54.4,48.0,29.83,South,186,6.0,12.0,79,0.00,,CLR,0.02,VWS V14.01,2013-01-12 05:58:00,